sensor_id;sensor_type;location;lat;lon;timestamp;pressure;altitude;pressure_sealevel;temperature;humidity
6208;BME280;3137;51.550;7.060;2023-07-13T00:00:09;76241.66;;;-145.94;51.89
6208;BME280;3137;51.550;7.060;2023-07-13T00:02:39;76235.53;;;-145.94;51.65
6208;BME280;3137;51.550;7.060;2023-07-13T00:05:06;76245.72;;;-145.94;51.10
6208;BME280;3137;51.550;7.060;2023-07-13T00:07:33;76249.81;;;-145.94;50.85
6208;BME280;3137;51.550;7.060;2023-07-13T00:09:59;76243.69;;;-145.94;49.93
6208;BME280;3137;51.550;7.060;2023-07-13T00:12:32;76235.53;;;-145.94;50.27
6208;BME280;3137;51.550;7.060;2023-07-13T00:15:02;76235.53;;;-145.94;50.13
6208;BME280;3137;51.550;7.060;2023-07-13T00:17:29;76233.50;;;-145.94;50.02
6208;BME280;3137;51.550;7.060;2023-07-13T00:19:56;76231.44;;;-145.94;50.05
6208;BME280;3137;51.550;7.060;2023-07-13T00:22:24;76227.38;;;-145.94;49.43
6208;BME280;3137;51.550;7.060;2023-07-13T00:24:53;76231.44;;;-145.94;49.71
6208;BME280;3137;51.550;7.060;2023-07-13T00:27:22;76223.28;;;-145.94;49.05
6208;BME280;3137;51.550;7.060;2023-07-13T00:29:48;76231.44;;;-145.94;49.10
6208;BME280;3137;51.550;7.060;2023-07-13T00:32:15;76231.44;;;-145.94;49.53
6208;BME280;3137;51.550;7.060;2023-07-13T00:34:41;76223.28;;;-145.94;49.35
6208;BME280;3137;51.550;7.060;2023-07-13T00:37:08;76225.34;;;-145.94;49.88
6208;BME280;3137;51.550;7.060;2023-07-13T00:39:35;76227.38;;;-145.94;49.71
6208;BME280;3137;51.550;7.060;2023-07-13T00:42:02;76233.50;;;-145.94;49.82
6208;BME280;3137;51.550;7.060;2023-07-13T00:44:29;76231.44;;;-145.94;49.61
6208;BME280;3137;51.550;7.060;2023-07-13T00:46:56;76231.44;;;-145.94;49.59
6208;BME280;3137;51.550;7.060;2023-07-13T00:49:27;76235.53;;;-145.94;50.45
6208;BME280;3137;51.550;7.060;2023-07-13T00:52:00;76249.81;;;-145.94;50.75
6208;BME280;3137;51.550;7.060;2023-07-13T00:54:32;76247.75;;;-145.94;50.61
6208;BME280;3137;51.550;7.060;2023-07-13T00:57:03;76249.81;;;-145.94;50.92
6208;BME280;3137;51.550;7.060;2023-07-13T00:59:31;76255.91;;;-145.94;51.13
6208;BME280;3137;51.550;7.060;2023-07-13T01:01:59;76260.00;;;-145.94;50.88
6208;BME280;3137;51.550;7.060;2023-07-13T01:04:26;76266.13;;;-145.94;50.82
6208;BME280;3137;51.550;7.060;2023-07-13T01:06:54;76255.91;;;-145.94;51.04
6208;BME280;3137;51.550;7.060;2023-07-13T01:09:20;76255.91;;;-145.94;50.50
6208;BME280;3137;51.550;7.060;2023-07-13T01:11:47;76268.16;;;-145.94;50.82
6208;BME280;3137;51.550;7.060;2023-07-13T01:14:15;76278.34;;;-145.94;50.31
6208;BME280;3137;51.550;7.060;2023-07-13T01:16:44;76270.19;;;-145.94;50.37
6208;BME280;3137;51.550;7.060;2023-07-13T01:19:26;76274.28;;;-145.94;50.46
6208;BME280;3137;51.550;7.060;2023-07-13T01:22:04;76280.38;;;-145.94;50.85
6208;BME280;3137;51.550;7.060;2023-07-13T01:24:36;76278.34;;;-145.94;50.29
6208;BME280;3137;51.550;7.060;2023-07-13T01:27:03;76280.38;;;-145.94;50.31
6208;BME280;3137;51.550;7.060;2023-07-13T01:29:30;76282.44;;;-145.94;50.90
6208;BME280;3137;51.550;7.060;2023-07-13T01:31:58;76288.53;;;-145.94;50.71
6208;BME280;3137;51.550;7.060;2023-07-13T01:34:24;76284.47;;;-145.94;50.44
6208;BME280;3137;51.550;7.060;2023-07-13T01:36:51;76286.50;;;-145.94;50.70
6208;BME280;3137;51.550;7.060;2023-07-13T01:39:21;76286.50;;;-145.94;51.17
6208;BME280;3137;51.550;7.060;2023-07-13T01:41:48;76294.66;;;-145.94;51.11
6208;BME280;3137;51.550;7.060;2023-07-13T01:44:17;76292.63;;;-145.94;51.36
6208;BME280;3137;51.550;7.060;2023-07-13T01:46:45;76302.81;;;-145.94;51.33
6208;BME280;3137;51.550;7.060;2023-07-13T01:49:12;76290.59;;;-145.94;51.37
6208;BME280;3137;51.550;7.060;2023-07-13T01:51:38;76288.53;;;-145.94;51.10
6208;BME280;3137;51.550;7.060;2023-07-13T01:54:05;76296.69;;;-145.94;51.38
6208;BME280;3137;51.550;7.060;2023-07-13T01:56:31;76300.78;;;-145.94;51.43
6208;BME280;3137;51.550;7.060;2023-07-13T01:58:58;76306.88;;;-145.94;51.38
6208;BME280;3137;51.550;7.060;2023-07-13T02:01:24;76304.84;;;-145.94;51.60
6208;BME280;3137;51.550;7.060;2023-07-13T02:03:53;76300.78;;;-145.94;52.04
6208;BME280;3137;51.550;7.060;2023-07-13T02:06:19;76317.09;;;-145.94;52.01
6208;BME280;3137;51.550;7.060;2023-07-13T02:08:47;76315.03;;;-145.94;52.02
6208;BME280;3137;51.550;7.060;2023-07-13T02:11:13;76315.03;;;-145.94;52.45
6208;BME280;3137;51.550;7.060;2023-07-13T02:13:40;76331.34;;;-145.94;52.06
6208;BME280;3137;51.550;7.060;2023-07-13T02:16:06;76323.19;;;-145.94;52.24
6208;BME280;3137;51.550;7.060;2023-07-13T02:18:33;76331.34;;;-145.94;52.50
6208;BME280;3137;51.550;7.060;2023-07-13T02:21:00;76341.56;;;-145.94;52.18
6208;BME280;3137;51.550;7.060;2023-07-13T02:23:26;76349.72;;;-145.94;52.46
6208;BME280;3137;51.550;7.060;2023-07-13T02:25:56;76349.72;;;-145.94;52.41
6208;BME280;3137;51.550;7.060;2023-07-13T02:28:23;76349.72;;;-145.94;52.35
6208;BME280;3137;51.550;7.060;2023-07-13T02:30:49;76353.78;;;-145.94;52.95
6208;BME280;3137;51.550;7.060;2023-07-13T02:33:17;76366.03;;;-145.94;52.66
6208;BME280;3137;51.550;7.060;2023-07-13T02:35:43;76355.81;;;-145.94;53.04
6208;BME280;3137;51.550;7.060;2023-07-13T02:38:10;76353.78;;;-145.94;53.17
6208;BME280;3137;51.550;7.060;2023-07-13T02:40:37;76353.78;;;-145.94;53.34
6208;BME280;3137;51.550;7.060;2023-07-13T02:43:04;76372.13;;;-145.94;53.80
6208;BME280;3137;51.550;7.060;2023-07-13T02:45:31;76359.91;;;-145.94;53.56
6208;BME280;3137;51.550;7.060;2023-07-13T02:47:57;76370.09;;;-145.94;53.32
6208;BME280;3137;51.550;7.060;2023-07-13T02:50:24;76374.19;;;-145.94;53.48
6208;BME280;3137;51.550;7.060;2023-07-13T02:52:50;76374.19;;;-145.94;54.02
6208;BME280;3137;51.550;7.060;2023-07-13T02:55:17;76378.25;;;-145.94;54.14
6208;BME280;3137;51.550;7.060;2023-07-13T02:57:43;76382.34;;;-145.94;53.82
6208;BME280;3137;51.550;7.060;2023-07-13T03:00:10;76380.28;;;-145.94;54.12
6208;BME280;3137;51.550;7.060;2023-07-13T03:02:37;76392.53;;;-145.94;53.76
6208;BME280;3137;51.550;7.060;2023-07-13T03:05:04;76396.59;;;-145.94;53.92
6208;BME280;3137;51.550;7.060;2023-07-13T03:07:31;76410.88;;;-145.94;53.85
6208;BME280;3137;51.550;7.060;2023-07-13T03:09:59;76412.91;;;-145.94;54.23
6208;BME280;3137;51.550;7.060;2023-07-13T03:12:34;76414.94;;;-145.94;53.77
6208;BME280;3137;51.550;7.060;2023-07-13T03:15:05;76431.28;;;-145.94;54.07
6208;BME280;3137;51.550;7.060;2023-07-13T03:17:34;76441.47;;;-145.94;54.81
6208;BME280;3137;51.550;7.060;2023-07-13T03:20:00;76443.50;;;-145.94;55.16
6208;BME280;3137;51.550;7.060;2023-07-13T03:22:27;76445.53;;;-145.94;55.11
6208;BME280;3137;51.550;7.060;2023-07-13T03:24:55;76449.63;;;-145.94;54.84
6208;BME280;3137;51.550;7.060;2023-07-13T03:27:21;76453.69;;;-145.94;55.31
6208;BME280;3137;51.550;7.060;2023-07-13T03:29:48;76447.56;;;-145.94;55.63
6208;BME280;3137;51.550;7.060;2023-07-13T03:32:16;76451.66;;;-145.94;55.41
6208;BME280;3137;51.550;7.060;2023-07-13T03:34:43;76455.72;;;-145.94;55.36
6208;BME280;3137;51.550;7.060;2023-07-13T03:37:09;76453.69;;;-145.94;55.60
6208;BME280;3137;51.550;7.060;2023-07-13T03:39:36;76451.66;;;-145.94;55.78
6208;BME280;3137;51.550;7.060;2023-07-13T03:42:03;76451.66;;;-145.94;55.71
6208;BME280;3137;51.550;7.060;2023-07-13T03:44:30;76451.66;;;-145.94;55.73
6208;BME280;3137;51.550;7.060;2023-07-13T03:46:56;76459.81;;;-145.94;55.62
6208;BME280;3137;51.550;7.060;2023-07-13T03:49:23;76461.84;;;-145.94;55.82
6208;BME280;3137;51.550;7.060;2023-07-13T03:51:49;76463.88;;;-145.94;56.17
6208;BME280;3137;51.550;7.060;2023-07-13T03:54:19;76461.84;;;-145.94;56.04
6208;BME280;3137;51.550;7.060;2023-07-13T03:56:46;76459.81;;;-145.94;56.16
6208;BME280;3137;51.550;7.060;2023-07-13T03:59:12;76455.72;;;-145.94;55.67
6208;BME280;3137;51.550;7.060;2023-07-13T04:01:39;76451.66;;;-145.94;55.67
6208;BME280;3137;51.550;7.060;2023-07-13T04:04:05;76459.81;;;-145.94;55.83
6208;BME280;3137;51.550;7.060;2023-07-13T04:06:32;76451.66;;;-145.94;55.76
6208;BME280;3137;51.550;7.060;2023-07-13T04:09:00;76449.63;;;-145.94;55.80
6208;BME280;3137;51.550;7.060;2023-07-13T04:11:29;76451.66;;;-145.94;55.94
6208;BME280;3137;51.550;7.060;2023-07-13T04:13:56;76461.84;;;-145.94;56.08
6208;BME280;3137;51.550;7.060;2023-07-13T04:16:22;76459.81;;;-145.94;56.07
6208;BME280;3137;51.550;7.060;2023-07-13T04:18:49;76459.81;;;-145.94;55.76
6208;BME280;3137;51.550;7.060;2023-07-13T04:21:16;76457.78;;;-145.94;56.00
6208;BME280;3137;51.550;7.060;2023-07-13T04:23:43;76459.81;;;-145.94;55.95
6208;BME280;3137;51.550;7.060;2023-07-13T04:26:09;76455.72;;;-145.94;56.34
6208;BME280;3137;51.550;7.060;2023-07-13T04:28:36;76457.78;;;-145.94;56.45
6208;BME280;3137;51.550;7.060;2023-07-13T04:31:03;76459.81;;;-145.94;56.50
6208;BME280;3137;51.550;7.060;2023-07-13T04:33:29;76461.84;;;-145.94;56.09
6208;BME280;3137;51.550;7.060;2023-07-13T04:35:56;76463.88;;;-145.94;56.83
6208;BME280;3137;51.550;7.060;2023-07-13T04:38:25;76463.88;;;-145.94;56.77
6208;BME280;3137;51.550;7.060;2023-07-13T04:40:58;76467.97;;;-145.94;57.06
6208;BME280;3137;51.550;7.060;2023-07-13T04:43:25;76476.13;;;-145.94;56.99
6208;BME280;3137;51.550;7.060;2023-07-13T04:45:52;76470.00;;;-145.94;56.78
6208;BME280;3137;51.550;7.060;2023-07-13T04:48:20;76484.28;;;-145.94;56.86
6208;BME280;3137;51.550;7.060;2023-07-13T04:50:47;76480.19;;;-145.94;57.04
6208;BME280;3137;51.550;7.060;2023-07-13T04:53:14;76470.00;;;-145.94;57.06
6208;BME280;3137;51.550;7.060;2023-07-13T04:55:40;76476.13;;;-145.94;57.01
6208;BME280;3137;51.550;7.060;2023-07-13T04:58:07;76465.94;;;-145.94;57.67
6208;BME280;3137;51.550;7.060;2023-07-13T05:00:33;76478.16;;;-145.94;57.78
6208;BME280;3137;51.550;7.060;2023-07-13T05:03:00;76478.16;;;-145.94;57.35
6208;BME280;3137;51.550;7.060;2023-07-13T05:05:27;76472.03;;;-145.94;57.66
6208;BME280;3137;51.550;7.060;2023-07-13T05:07:54;76472.03;;;-145.94;57.66
6208;BME280;3137;51.550;7.060;2023-07-13T05:10:20;76467.97;;;-145.94;58.04
6208;BME280;3137;51.550;7.060;2023-07-13T05:12:47;76463.88;;;-145.94;57.88
6208;BME280;3137;51.550;7.060;2023-07-13T05:15:14;76461.84;;;-145.94;58.01
6208;BME280;3137;51.550;7.060;2023-07-13T05:17:41;76463.88;;;-145.94;57.63
6208;BME280;3137;51.550;7.060;2023-07-13T05:20:09;76459.81;;;-145.94;57.61
6208;BME280;3137;51.550;7.060;2023-07-13T05:22:36;76476.13;;;-145.94;57.88
6208;BME280;3137;51.550;7.060;2023-07-13T05:25:06;76472.03;;;-145.94;58.07
6208;BME280;3137;51.550;7.060;2023-07-13T05:27:34;76474.09;;;-145.94;58.31
6208;BME280;3137;51.550;7.060;2023-07-13T05:30:02;76465.94;;;-145.94;58.53
6208;BME280;3137;51.550;7.060;2023-07-13T05:32:29;76465.94;;;-145.94;58.14
6208;BME280;3137;51.550;7.060;2023-07-13T05:34:56;76470.00;;;-145.94;58.34
6208;BME280;3137;51.550;7.060;2023-07-13T05:37:22;76472.03;;;-145.94;58.35
6208;BME280;3137;51.550;7.060;2023-07-13T05:39:49;76461.84;;;-145.94;58.56
6208;BME280;3137;51.550;7.060;2023-07-13T05:42:15;76467.97;;;-145.94;58.16
6208;BME280;3137;51.550;7.060;2023-07-13T05:44:42;76472.03;;;-145.94;58.61
6208;BME280;3137;51.550;7.060;2023-07-13T05:47:08;76476.13;;;-145.94;58.29
6208;BME280;3137;51.550;7.060;2023-07-13T05:49:35;76470.00;;;-145.94;58.43
6208;BME280;3137;51.550;7.060;2023-07-13T05:52:01;76470.00;;;-145.94;58.82
6208;BME280;3137;51.550;7.060;2023-07-13T05:54:28;76455.72;;;-145.94;59.49
6208;BME280;3137;51.550;7.060;2023-07-13T05:56:54;76447.56;;;-145.94;58.32
6208;BME280;3137;51.550;7.060;2023-07-13T05:59:21;76455.72;;;-145.94;58.45
6208;BME280;3137;51.550;7.060;2023-07-13T06:01:48;76465.94;;;-145.94;58.60
6208;BME280;3137;51.550;7.060;2023-07-13T06:04:15;76459.81;;;-145.94;58.91
6208;BME280;3137;51.550;7.060;2023-07-13T06:06:41;76472.03;;;-145.94;58.69
6208;BME280;3137;51.550;7.060;2023-07-13T06:09:08;76470.00;;;-145.94;59.26
6208;BME280;3137;51.550;7.060;2023-07-13T06:11:34;76490.41;;;-145.94;59.36
6208;BME280;3137;51.550;7.060;2023-07-13T06:14:01;76488.34;;;-145.94;59.00
6208;BME280;3137;51.550;7.060;2023-07-13T06:16:28;76484.28;;;-145.94;59.03
6208;BME280;3137;51.550;7.060;2023-07-13T06:18:54;76484.28;;;-145.94;59.22
6208;BME280;3137;51.550;7.060;2023-07-13T06:21:22;76478.16;;;-145.94;59.31
6208;BME280;3137;51.550;7.060;2023-07-13T06:23:50;76472.03;;;-145.94;59.26
6208;BME280;3137;51.550;7.060;2023-07-13T06:26:18;76474.09;;;-145.94;59.28
6208;BME280;3137;51.550;7.060;2023-07-13T06:28:45;76478.16;;;-145.94;59.44
6208;BME280;3137;51.550;7.060;2023-07-13T06:31:13;76476.13;;;-145.94;59.40
6208;BME280;3137;51.550;7.060;2023-07-13T06:33:40;76470.00;;;-145.94;59.73
6208;BME280;3137;51.550;7.060;2023-07-13T06:36:08;76457.78;;;-145.94;58.85
6208;BME280;3137;51.550;7.060;2023-07-13T06:38:35;76449.63;;;-145.94;59.32
6208;BME280;3137;51.550;7.060;2023-07-13T06:41:03;76433.31;;;-145.94;58.96
6208;BME280;3137;51.550;7.060;2023-07-13T06:43:30;76414.94;;;-145.94;58.68
6208;BME280;3137;51.550;7.060;2023-07-13T06:45:58;76394.56;;;-145.94;58.51
6208;BME280;3137;51.550;7.060;2023-07-13T06:48:25;76388.44;;;-145.94;58.14
6208;BME280;3137;51.550;7.060;2023-07-13T06:50:51;76374.19;;;-145.94;57.83
6208;BME280;3137;51.550;7.060;2023-07-13T06:53:19;76359.91;;;-145.94;57.94
6208;BME280;3137;51.550;7.060;2023-07-13T06:55:47;76341.56;;;-145.94;57.95
6208;BME280;3137;51.550;7.060;2023-07-13T06:58:16;76343.59;;;-145.94;57.62
6208;BME280;3137;51.550;7.060;2023-07-13T07:00:43;76357.88;;;-145.94;57.37
6208;BME280;3137;51.550;7.060;2023-07-13T07:03:10;76368.06;;;-145.94;57.50
6208;BME280;3137;51.550;7.060;2023-07-13T07:05:36;76374.19;;;-145.94;57.50
6208;BME280;3137;51.550;7.060;2023-07-13T07:08:03;76370.09;;;-145.94;57.73
6208;BME280;3137;51.550;7.060;2023-07-13T07:10:30;76370.09;;;-145.94;57.54
6208;BME280;3137;51.550;7.060;2023-07-13T07:12:57;76368.06;;;-145.94;57.70
6208;BME280;3137;51.550;7.060;2023-07-13T07:15:25;76353.78;;;-145.94;57.98
6208;BME280;3137;51.550;7.060;2023-07-13T07:17:52;76353.78;;;-145.94;57.68
6208;BME280;3137;51.550;7.060;2023-07-13T07:20:19;76353.78;;;-145.94;57.90
6208;BME280;3137;51.550;7.060;2023-07-13T07:22:47;76351.75;;;-145.94;57.57
6208;BME280;3137;51.550;7.060;2023-07-13T07:25:14;76349.72;;;-145.94;58.14
6208;BME280;3137;51.550;7.060;2023-07-13T07:27:40;76357.88;;;-145.94;57.57
6208;BME280;3137;51.550;7.060;2023-07-13T07:30:10;76363.97;;;-145.94;58.25
6208;BME280;3137;51.550;7.060;2023-07-13T07:32:40;76355.81;;;-145.94;57.67
6208;BME280;3137;51.550;7.060;2023-07-13T07:35:23;76349.72;;;-145.94;57.63
6208;BME280;3137;51.550;7.060;2023-07-13T07:37:49;76345.63;;;-145.94;57.55
6208;BME280;3137;51.550;7.060;2023-07-13T07:40:17;76335.44;;;-145.94;57.17
6208;BME280;3137;51.550;7.060;2023-07-13T07:42:47;76335.44;;;-145.94;56.96
6208;BME280;3137;51.550;7.060;2023-07-13T07:45:14;76325.25;;;-145.94;57.18
6208;BME280;3137;51.550;7.060;2023-07-13T07:47:41;76323.19;;;-145.94;57.14
6208;BME280;3137;51.550;7.060;2023-07-13T07:50:08;76321.16;;;-145.94;56.41
6208;BME280;3137;51.550;7.060;2023-07-13T07:52:35;76315.03;;;-145.94;57.26
6208;BME280;3137;51.550;7.060;2023-07-13T07:55:01;76321.16;;;-145.94;56.97
6208;BME280;3137;51.550;7.060;2023-07-13T07:57:31;76317.09;;;-145.94;57.04
6208;BME280;3137;51.550;7.060;2023-07-13T08:00:18;76321.16;;;-145.94;57.37
6208;BME280;3137;51.550;7.060;2023-07-13T08:02:47;76317.09;;;-145.94;57.03
6208;BME280;3137;51.550;7.060;2023-07-13T08:05:17;76319.13;;;-145.94;56.99
6208;BME280;3137;51.550;7.060;2023-07-13T08:07:47;76300.78;;;-145.94;56.24
6208;BME280;3137;51.550;7.060;2023-07-13T08:10:13;76280.38;;;-145.94;55.49
6208;BME280;3137;51.550;7.060;2023-07-13T08:12:40;76266.13;;;-145.94;55.55
6208;BME280;3137;51.550;7.060;2023-07-13T08:15:16;76249.81;;;-145.94;55.53
6208;BME280;3137;51.550;7.060;2023-07-13T08:17:43;76239.59;;;-145.94;55.42
6208;BME280;3137;51.550;7.060;2023-07-13T08:20:11;76249.81;;;-145.94;55.18
6208;BME280;3137;51.550;7.060;2023-07-13T08:22:37;76227.38;;;-145.94;55.71
6208;BME280;3137;51.550;7.060;2023-07-13T08:25:04;76247.75;;;-145.94;54.63
6208;BME280;3137;51.550;7.060;2023-07-13T08:27:31;76264.06;;;-145.94;54.67
6208;BME280;3137;51.550;7.060;2023-07-13T08:29:57;76257.97;;;-145.94;54.76
6208;BME280;3137;51.550;7.060;2023-07-13T08:32:24;76257.97;;;-145.94;55.13
6208;BME280;3137;51.550;7.060;2023-07-13T08:34:51;76247.75;;;-145.94;54.71
6208;BME280;3137;51.550;7.060;2023-07-13T08:37:18;76264.06;;;-145.94;54.47
6208;BME280;3137;51.550;7.060;2023-07-13T08:39:45;76292.63;;;-145.94;54.76
6208;BME280;3137;51.550;7.060;2023-07-13T08:45:25;76274.28;;;-145.94;55.23
6208;BME280;3137;51.550;7.060;2023-07-13T08:47:54;76270.19;;;-145.94;55.72
6208;BME280;3137;51.550;7.060;2023-07-13T08:50:25;76251.84;;;-145.94;55.19
6208;BME280;3137;51.550;7.060;2023-07-13T08:52:55;76253.88;;;-145.94;55.14
6208;BME280;3137;51.550;7.060;2023-07-13T08:55:34;76243.69;;;-145.94;54.54
6208;BME280;3137;51.550;7.060;2023-07-13T08:58:14;76215.13;;;-145.94;55.01
6208;BME280;3137;51.550;7.060;2023-07-13T09:04:07;76196.78;;;-145.94;54.36
6208;BME280;3137;51.550;7.060;2023-07-13T09:09:41;76219.22;;;-145.94;54.60
6208;BME280;3137;51.550;7.060;2023-07-13T09:15:01;76227.38;;;-145.94;54.08
6208;BME280;3137;51.550;7.060;2023-07-13T09:17:41;76207.00;;;-145.94;54.28
6208;BME280;3137;51.550;7.060;2023-07-13T09:20:31;76188.63;;;-145.94;53.95
6208;BME280;3137;51.550;7.060;2023-07-13T09:23:00;76166.22;;;-145.94;54.23
6208;BME280;3137;51.550;7.060;2023-07-13T09:25:33;76143.78;;;-145.94;53.92
6208;BME280;3137;51.550;7.060;2023-07-13T09:28:09;76145.81;;;-145.94;53.00
6208;BME280;3137;51.550;7.060;2023-07-13T09:31:03;76125.44;;;-145.94;53.34
6208;BME280;3137;51.550;7.060;2023-07-13T09:33:30;76115.25;;;-145.94;53.50
6208;BME280;3137;51.550;7.060;2023-07-13T09:35:58;76117.28;;;-145.94;52.64
6208;BME280;3137;51.550;7.060;2023-07-13T09:38:27;76127.47;;;-145.94;52.40
6208;BME280;3137;51.550;7.060;2023-07-13T09:41:08;76135.63;;;-145.94;52.45
6208;BME280;3137;51.550;7.060;2023-07-13T09:44:28;76151.94;;;-145.94;52.99
6208;BME280;3137;51.550;7.060;2023-07-13T09:46:57;76137.66;;;-145.94;52.70
6208;BME280;3137;51.550;7.060;2023-07-13T09:49:29;76135.63;;;-145.94;52.18
6208;BME280;3137;51.550;7.060;2023-07-13T09:52:02;76127.47;;;-145.94;51.93
6208;BME280;3137;51.550;7.060;2023-07-13T09:54:32;76125.44;;;-145.94;51.86
6208;BME280;3137;51.550;7.060;2023-07-13T09:56:59;76129.50;;;-145.94;51.56
6208;BME280;3137;51.550;7.060;2023-07-13T09:59:40;76115.25;;;-145.94;51.84
6208;BME280;3137;51.550;7.060;2023-07-13T10:02:30;76098.94;;;-145.94;51.18
6208;BME280;3137;51.550;7.060;2023-07-13T10:05:03;76088.72;;;-145.94;51.92
6208;BME280;3137;51.550;7.060;2023-07-13T10:07:31;76094.84;;;-145.94;50.65
6208;BME280;3137;51.550;7.060;2023-07-13T10:10:00;76107.09;;;-145.94;50.95
6208;BME280;3137;51.550;7.060;2023-07-13T10:12:29;76123.41;;;-145.94;51.22
6208;BME280;3137;51.550;7.060;2023-07-13T10:15:00;76125.44;;;-145.94;52.07
6208;BME280;3137;51.550;7.060;2023-07-13T10:17:48;76137.66;;;-145.94;51.77
6208;BME280;3137;51.550;7.060;2023-07-13T10:20:16;76137.66;;;-145.94;51.95
6208;BME280;3137;51.550;7.060;2023-07-13T10:23:02;76139.69;;;-145.94;51.64
6208;BME280;3137;51.550;7.060;2023-07-13T10:25:33;76141.75;;;-145.94;51.74
6208;BME280;3137;51.550;7.060;2023-07-13T10:28:27;76151.94;;;-145.94;52.02
6208;BME280;3137;51.550;7.060;2023-07-13T10:30:56;76147.84;;;-145.94;51.86
6208;BME280;3137;51.550;7.060;2023-07-13T10:33:24;76119.31;;;-145.94;51.00
6208;BME280;3137;51.550;7.060;2023-07-13T10:35:58;76100.97;;;-145.94;51.88
6208;BME280;3137;51.550;7.060;2023-07-13T10:38:28;76094.84;;;-145.94;51.93
6208;BME280;3137;51.550;7.060;2023-07-13T10:41:01;76084.66;;;-145.94;52.32
6208;BME280;3137;51.550;7.060;2023-07-13T10:43:35;76098.94;;;-145.94;50.50
6208;BME280;3137;51.550;7.060;2023-07-13T10:46:10;76111.16;;;-145.94;50.54
6208;BME280;3137;51.550;7.060;2023-07-13T10:48:40;76119.31;;;-145.94;50.77
6208;BME280;3137;51.550;7.060;2023-07-13T10:51:09;76129.50;;;-145.94;49.91
6208;BME280;3137;51.550;7.060;2023-07-13T10:53:38;76129.50;;;-145.94;51.06
6208;BME280;3137;51.550;7.060;2023-07-13T10:56:20;76100.97;;;-145.94;51.55
6208;BME280;3137;51.550;7.060;2023-07-13T10:59:02;76084.66;;;-145.94;50.66
6208;BME280;3137;51.550;7.060;2023-07-13T11:01:58;76047.97;;;-145.94;50.11
6208;BME280;3137;51.550;7.060;2023-07-13T11:04:27;76023.50;;;-145.94;48.60
6208;BME280;3137;51.550;7.060;2023-07-13T11:07:00;76011.25;;;-145.94;48.80
6208;BME280;3137;51.550;7.060;2023-07-13T11:09:39;76003.09;;;-145.94;49.04
6208;BME280;3137;51.550;7.060;2023-07-13T11:12:09;75976.59;;;-145.94;47.57
6208;BME280;3137;51.550;7.060;2023-07-13T11:15:03;75980.69;;;-145.94;46.54
6208;BME280;3137;51.550;7.060;2023-07-13T11:20:19;75929.72;;;-145.94;46.66
6208;BME280;3137;51.550;7.060;2023-07-13T11:25:43;75919.50;;;-145.94;46.66
6208;BME280;3137;51.550;7.060;2023-07-13T11:33:20;75897.09;;;-145.94;45.76
6208;BME280;3137;51.550;7.060;2023-07-13T11:36:06;75903.22;;;-145.94;45.19
6208;BME280;3137;51.550;7.060;2023-07-13T11:41:56;75884.84;;;-145.94;44.17
6208;BME280;3137;51.550;7.060;2023-07-13T11:44:26;75917.47;;;-145.94;45.14
6208;BME280;3137;51.550;7.060;2023-07-13T11:46:55;75905.25;;;-145.94;45.56
6208;BME280;3137;51.550;7.060;2023-07-13T11:49:23;75923.59;;;-145.94;44.79
6208;BME280;3137;51.550;7.060;2023-07-13T11:51:51;75911.38;;;-145.94;45.58
6208;BME280;3137;51.550;7.060;2023-07-13T11:56:58;75842.03;;;-145.94;41.73
6208;BME280;3137;51.550;7.060;2023-07-13T11:59:29;75833.88;;;-145.94;42.75
6208;BME280;3137;51.550;7.060;2023-07-13T12:01:57;75811.47;;;-145.94;42.38
6208;BME280;3137;51.550;7.060;2023-07-13T12:04:26;75787.00;;;-145.94;42.95
6208;BME280;3137;51.550;7.060;2023-07-13T12:07:06;75789.03;;;-145.94;41.65
6208;BME280;3137;51.550;7.060;2023-07-13T12:09:35;75780.88;;;-145.94;41.41
6208;BME280;3137;51.550;7.060;2023-07-13T12:12:03;75793.13;;;-145.94;39.83
6208;BME280;3137;51.550;7.060;2023-07-13T12:14:33;75782.94;;;-145.94;40.96
6208;BME280;3137;51.550;7.060;2023-07-13T12:17:00;75813.50;;;-145.94;40.90
6208;BME280;3137;51.550;7.060;2023-07-13T12:19:28;75827.78;;;-145.94;41.47
6208;BME280;3137;51.550;7.060;2023-07-13T12:21:58;75840.00;;;-145.94;41.50
6208;BME280;3137;51.550;7.060;2023-07-13T12:24:26;75835.94;;;-145.94;41.79
6208;BME280;3137;51.550;7.060;2023-07-13T12:26:58;75807.38;;;-145.94;42.59
6208;BME280;3137;51.550;7.060;2023-07-13T12:29:26;75797.19;;;-145.94;41.58
6208;BME280;3137;51.550;7.060;2023-07-13T12:31:53;75782.94;;;-145.94;41.92
6208;BME280;3137;51.550;7.060;2023-07-13T12:34:22;75768.66;;;-145.94;41.89
6208;BME280;3137;51.550;7.060;2023-07-13T12:37:00;75768.66;;;-145.94;40.98
6208;BME280;3137;51.550;7.060;2023-07-13T12:39:44;75809.44;;;-145.94;40.61
6208;BME280;3137;51.550;7.060;2023-07-13T12:42:19;75789.03;;;-145.94;40.46
6208;BME280;3137;51.550;7.060;2023-07-13T12:44:47;75768.66;;;-145.94;41.52
6208;BME280;3137;51.550;7.060;2023-07-13T12:47:15;75744.19;;;-145.94;40.43
6208;BME280;3137;51.550;7.060;2023-07-13T12:49:48;75756.41;;;-145.94;40.54
6208;BME280;3137;51.550;7.060;2023-07-13T12:52:21;75766.63;;;-145.94;40.06
6208;BME280;3137;51.550;7.060;2023-07-13T12:55:02;75780.88;;;-145.94;40.69
6208;BME280;3137;51.550;7.060;2023-07-13T12:57:38;75764.56;;;-145.94;41.13
6208;BME280;3137;51.550;7.060;2023-07-13T13:00:20;75770.69;;;-145.94;40.61
6208;BME280;3137;51.550;7.060;2023-07-13T13:02:50;75784.97;;;-145.94;40.87
6208;BME280;3137;51.550;7.060;2023-07-13T13:05:17;75803.31;;;-145.94;41.81
6208;BME280;3137;51.550;7.060;2023-07-13T13:07:44;75856.31;;;-145.94;41.42
6208;BME280;3137;51.550;7.060;2023-07-13T13:10:13;75917.47;;;-145.94;42.44
6208;BME280;3137;51.550;7.060;2023-07-13T13:12:40;76115.25;;;-145.94;47.67
6208;BME280;3137;51.550;7.060;2023-07-13T13:15:11;76255.91;;;-145.94;51.55
6208;BME280;3137;51.550;7.060;2023-07-13T13:17:38;76325.25;;;-145.94;54.45
6208;BME280;3137;51.550;7.060;2023-07-13T13:20:15;76363.97;;;-145.94;55.31
6208;BME280;3137;51.550;7.060;2023-07-13T13:22:42;76376.22;;;-145.94;56.20
6208;BME280;3137;51.550;7.060;2023-07-13T13:25:12;76425.16;;;-145.94;57.54
6208;BME280;3137;51.550;7.060;2023-07-13T13:27:41;76441.47;;;-145.94;59.36
6208;BME280;3137;51.550;7.060;2023-07-13T13:30:17;76445.53;;;-145.94;59.86
6208;BME280;3137;51.550;7.060;2023-07-13T13:32:46;76453.69;;;-145.94;60.32
6208;BME280;3137;51.550;7.060;2023-07-13T13:35:15;76447.56;;;-145.94;59.79
6208;BME280;3137;51.550;7.060;2023-07-13T13:37:41;76443.50;;;-145.94;60.48
6208;BME280;3137;51.550;7.060;2023-07-13T13:40:17;76439.41;;;-145.94;61.40